ADDS METAR Data INFO
IDs: Format: Raw Decoded Include TAF

Data at: 0303 UTC 21 Oct 2017

KBRO 210253Z 12007KT 10SM CLR 26/23 A2991 RMK AO2 SLP126 T02560228 51009